If you wish to contribute or participate in the discussions about articles you are invited to join SKYbrary as a registered user

 Actions

Nancy-Essey Airport

From SKYbrary Wiki

LFSN
Airport
ICAO: LFSN – IATA: ENC
Summary
Name Nancy-Essey Airport
Region Europe
Territory France FR.gif
Location , Lorraine
Serving Nancy
Elevation 228.905 m
751 ft
751 ft228.905 m
Type medium airport
Coordinates 48° 41' 31.45" N, 6° 13' 49.65" E
Runways
Designator Length Width Surface ROPS
3/21 1400 m4,593.176 ft
40 m131.234 ft
ASP yes/yes


METAR
Observation LFSN 260100Z AUTO 15002KT CAVOK 16/11 Q1018
Station Nancy / Essey
Date/Time 26 August 2019 01:00:00
Wind direction 150°
Wind speed 02 kts
Lowest cloud amount clouds and visibility OK
Temperature 16°C
Dew point 11°C
Humidity 72%
QNH 1018 hPa
Weather condition n/a